Time;durP1;ratioP1;P1;durP2;ratioP2;P2;SDS_P1;SDS_P2;PMS_P1;PMS_P2;Temp;Humidity;BMP_temperature;BMP_pressure;BME280_temperature;BME280_humidity;BME280_pressure;Samples;Min_cycle;Max_cycle;Signal;HPM_P1;HPM_P2
2022/05/20 04:03:45;;;;;;;6.60;5.33;;;16.70;99.90;;;;;;6119028;23;20922;31
2022/05/20 04:06:10;;;;;;;6.60;5.30;;;16.60;99.90;;;;;;4917549;29;20428;-64
2022/05/20 04:08:37;;;;;;;7.77;5.33;;;16.60;99.90;;;;;;4918777;29;20495;-64
2022/05/20 04:11:03;;;;;;;5.83;5.23;;;16.70;99.90;;;;;;4919378;29;20177;-63
2022/05/20 04:13:28;;;;;;;5.40;4.90;;;16.70;99.90;;;;;;4918834;29;20459;-63
2022/05/20 04:15:54;;;;;;;6.70;5.27;;;16.70;99.90;;;;;;4918632;29;20183;-64
2022/05/20 04:18:20;;;;;;;6.30;5.70;;;16.70;99.90;;;;;;4919000;29;20178;-64
2022/05/20 04:20:46;;;;;;;5.60;5.13;;;16.80;99.90;;;;;;4919010;29;20221;-64
2022/05/20 04:23:14;;;;;;;5.13;4.53;;;16.80;99.90;;;;;;4918759;29;20441;-65
2022/05/20 04:25:39;;;;;;;7.70;5.90;;;16.90;99.90;;;;;;4919123;29;20461;-65
2022/05/20 04:28:05;;;;;;;7.17;4.80;;;16.90;99.90;;;;;;4918680;29;20729;-66
2022/05/20 04:30:31;;;;;;;6.13;5.40;;;16.90;99.90;;;;;;4919219;29;20186;-65
2022/05/20 04:32:56;;;;;;;5.97;5.47;;;17.00;99.90;;;;;;4918233;29;20206;-66
2022/05/20 04:35:22;;;;;;;10.83;6.10;;;17.00;99.90;;;;;;4918437;29;20174;-65
2022/05/20 04:37:47;;;;;;;5.40;4.73;;;17.10;99.90;;;;;;4918899;29;20175;-65
2022/05/20 04:40:13;;;;;;;5.63;4.80;;;17.10;99.90;;;;;;4918851;29;20563;-64
2022/05/20 04:48:09;;;;;;;5.10;4.60;;;17.10;99.90;;;;;;4918381;29;20463;-65
2022/05/20 04:50:34;;;;;;;6.57;5.97;;;17.20;99.90;;;;;;4918655;29;20455;-65
2022/05/20 04:53:00;;;;;;;5.43;4.70;;;17.20;99.90;;;;;;4918303;29;20448;-65
2022/05/20 04:55:26;;;;;;;5.90;5.40;;;17.30;99.90;;;;;;4918753;29;20751;-65
2022/05/20 04:57:52;;;;;;;5.47;5.03;;;17.40;99.90;;;;;;4918122;29;20251;-64
2022/05/20 05:00:26;;;;;;;5.27;4.87;;;17.50;99.90;;;;;;4918492;29;20219;-65
2022/05/20 05:02:53;;;;;;;9.07;4.67;;;17.60;99.90;;;;;;4913979;29;20377;-64
2022/05/20 05:05:21;;;;;;;8.00;5.10;;;17.80;99.90;;;;;;4906809;29;20801;-64
2022/05/20 05:07:49;;;;;;;5.87;5.23;;;18.00;99.90;;;;;;4917845;29;20872;-66
2022/05/20 05:10:18;;;;;;;5.40;5.00;;;18.10;99.90;;;;;;4918163;29;20465;-66
2022/05/20 05:12:45;;;;;;;5.53;4.83;;;18.20;99.90;;;;;;4917819;29;20432;-65
2022/05/20 05:15:12;;;;;;;6.07;5.53;;;18.40;99.90;;;;;;4917975;29;20493;-64
2022/05/20 05:20:23;;;;;;;5.33;4.70;;;18.60;99.90;;;;;;4918009;29;20788;-65
2022/05/20 05:22:50;;;;;;;5.57;5.07;;;18.70;99.90;;;;;;4917612;29;20797;-66
2022/05/20 05:25:17;;;;;;;6.00;5.50;;;18.70;99.90;;;;;;4916298;29;20429;-64
2022/05/20 05:27:43;;;;;;;4.77;4.43;;;18.70;99.90;;;;;;4899397;29;20925;-64
2022/05/20 05:30:11;;;;;;;4.83;4.43;;;18.90;99.90;;;;;;4917686;29;20385;-66
2022/05/20 05:32:38;;;;;;;13.87;4.90;;;18.90;99.90;;;;;;4917399;29;20287;-64
2022/05/20 05:35:11;;;;;;;5.17;4.77;;;19.00;99.90;;;;;;4917153;29;20500;-65
2022/05/20 05:37:38;;;;;;;4.60;4.20;;;19.10;99.90;;;;;;4916489;29;20434;-64
2022/05/20 05:40:06;;;;;;;4.23;3.87;;;19.30;99.90;;;;;;4917604;29;20415;-66
2022/05/20 05:42:32;;;;;;;7.53;4.50;;;19.60;99.90;;;;;;4917414;29;20389;-64
2022/05/20 05:44:58;;;;;;;4.20;3.87;;;19.80;99.90;;;;;;4917087;29;20537;-66
2022/05/20 05:47:24;;;;;;;5.07;4.57;;;19.90;99.90;;;;;;4916471;29;20426;-65
2022/05/20 05:49:49;;;;;;;4.47;4.07;;;20.00;99.90;;;;;;4917260;29;20414;-65
2022/05/20 05:52:15;;;;;;;4.00;3.60;;;20.00;99.90;;;;;;4917111;29;20189;-66
2022/05/20 05:54:41;;;;;;;4.40;4.00;;;20.10;99.90;;;;;;4916251;29;20213;-65
2022/05/20 05:57:06;;;;;;;4.50;4.10;;;20.20;99.90;;;;;;4898693;29;20175;-66
2022/05/20 05:59:33;;;;;;;4.67;4.23;;;20.20;99.90;;;;;;4898386;29;20214;-66
2022/05/20 06:02:00;;;;;;;3.67;3.47;;;20.30;99.90;;;;;;4898434;29;20183;-67
2022/05/20 06:04:26;;;;;;;4.40;4.00;;;20.40;99.90;;;;;;4898182;29;20461;-66
2022/05/20 06:06:53;;;;;;;6.27;5.30;;;20.50;99.90;;;;;;4910807;29;20572;-67
2022/05/20 06:09:19;;;;;;;3.90;3.60;;;20.50;99.90;;;;;;4898523;29;20415;-67
2022/05/20 06:11:45;;;;;;;4.63;4.33;;;20.60;99.90;;;;;;4898393;29;20906;-66
2022/05/20 06:14:10;;;;;;;4.70;4.30;;;20.70;99.90;;;;;;4897801;29;20323;-65
2022/05/20 06:16:38;;;;;;;4.50;4.10;;;20.80;99.90;;;;;;4898188;29;20961;-66
2022/05/20 06:19:04;;;;;;;5.10;3.57;;;20.90;99.90;;;;;;4917140;29;20183;-66
2022/05/20 06:21:30;;;;;;;4.60;4.30;;;21.00;99.90;;;;;;4900034;29;20401;-65
2022/05/20 06:23:55;;;;;;;4.03;3.73;;;21.10;99.90;;;;;;4916106;29;20848;-65
2022/05/20 06:26:21;;;;;;;4.60;4.20;;;21.20;99.90;;;;;;4916505;29;20421;-66
2022/05/20 06:28:47;;;;;;;5.03;4.53;;;21.30;99.90;;;;;;4899352;29;20287;-66
2022/05/20 06:31:14;;;;;;;3.80;3.40;;;21.50;99.90;;;;;;4897202;29;20443;-67
2022/05/20 06:33:40;;;;;;;4.43;4.10;;;21.70;99.90;;;;;;4897205;29;20455;-67
2022/05/20 06:41:35;;;;;;;4.60;4.20;;;22.20;99.90;;;;;;4917065;29;20435;-64
2022/05/20 06:44:02;;;;;;;3.93;3.63;;;22.40;99.90;;;;;;4916209;29;20934;-67
2022/05/20 06:46:28;;;;;;;4.73;3.60;;;22.70;99.90;;;;;;4916700;29;20506;-66
2022/05/20 06:48:55;;;;;;;7.47;5.50;;;22.80;99.90;;;;;;4899732;29;20433;-65
2022/05/20 06:51:28;;;;;;;7.33;6.80;;;23.00;99.90;;;;;;4898126;29;20180;-66
2022/05/20 06:53:55;;;;;;;3.57;3.37;;;23.20;99.90;;;;;;4897479;29;20462;-64
2022/05/20 06:56:24;;;;;;;5.17;4.00;;;23.30;99.90;;;;;;4897865;29;20486;-65
2022/05/20 06:58:50;;;;;;;3.43;3.20;;;23.30;99.90;;;;;;4913457;29;20429;-67
2022/05/20 07:01:16;;;;;;;5.13;3.20;;;23.40;99.90;;;;;;4916886;29;20387;-66
2022/05/20 07:03:42;;;;;;;7.40;4.00;;;23.60;99.90;;;;;;4915945;29;20418;-66
2022/05/20 07:06:09;;;;;;;5.07;3.23;;;23.70;99.90;;;;;;4916744;29;20422;-67
2022/05/20 07:08:35;;;;;;;4.50;3.50;;;24.00;99.90;;;;;;4902852;29;20434;-66
2022/05/20 07:11:02;;;;;;;5.90;3.60;;;24.10;99.90;;;;;;4897791;29;20416;-67
2022/05/20 07:13:31;;;;;;;4.33;3.93;;;24.30;99.90;;;;;;4897343;29;20459;-65
2022/05/20 07:15:58;;;;;;;11.93;6.17;;;24.40;99.90;;;;;;4897823;29;20382;-67
2022/05/20 07:18:29;;;;;;;3.90;3.50;;;24.60;99.90;;;;;;4909101;29;20434;-66
2022/05/20 07:20:55;;;;;;;4.80;3.80;;;24.80;99.90;;;;;;4916413;29;20438;-68
2022/05/20 07:23:24;;;;;;;3.70;3.40;;;25.10;99.90;;;;;;4916232;29;20426;-66
2022/05/20 07:25:51;;;;;;;4.37;3.97;;;25.30;99.90;;;;;;4899296;29;20527;-67
2022/05/20 07:28:17;;;;;;;4.33;3.77;;;25.60;99.90;;;;;;4902348;29;20458;-67
2022/05/20 07:30:42;;;;;;;4.40;3.77;;;25.90;99.90;;;;;;4897487;29;20440;-67
2022/05/20 07:33:08;;;;;;;3.50;3.30;;;26.30;99.90;;;;;;4896943;29;20388;-69
2022/05/20 07:35:35;;;;;;;3.93;3.50;;;26.80;99.90;;;;;;4897328;29;20175;-64
2022/05/20 07:38:01;;;;;;;5.10;4.10;;;27.30;99.90;;;;;;4908248;29;20206;-67
2022/05/20 07:40:27;;;;;;;5.30;4.03;;;27.90;99.90;;;;;;4916325;29;20413;-65
2022/05/20 07:42:52;;;;;;;3.80;3.50;;;28.80;99.90;;;;;;4916833;29;20185;-66
2022/05/20 07:45:18;;;;;;;4.00;3.70;;;29.80;96.80;;;;;;4919669;29;20185;-66
2022/05/20 07:47:45;;;;;;;3.60;3.30;;;31.00;97.00;;;;;;4909644;29;20225;-68
2022/05/20 07:50:11;;;;;;;4.00;3.70;;;32.20;94.20;;;;;;4900919;29;20179;-67
2022/05/20 07:55:25;;;;;;;4.27;3.97;;;34.00;90.80;;;;;;4901023;29;20274;-67
2022/05/20 07:57:52;;;;;;;3.63;3.33;;;34.70;87.00;;;;;;4909742;29;20437;-69
2022/05/20 08:00:20;;;;;;;3.80;3.50;;;35.30;85.80;;;;;;4919563;29;20416;-68
2022/05/20 08:02:47;;;;;;;4.27;3.90;;;35.70;82.90;;;;;;4900574;29;20424;-67
2022/05/20 08:05:12;;;;;;;4.13;3.83;;;36.00;81.70;;;;;;4900025;29;20489;-66
2022/05/20 08:07:42;;;;;;;4.50;4.20;;;36.50;80.50;;;;;;4906940;29;20470;-64
2022/05/20 08:10:12;;;;;;;4.60;4.20;;;37.00;81.40;;;;;;4919092;29;20223;-63
2022/05/20 08:12:38;;;;;;;3.70;3.50;;;37.40;81.40;;;;;;4918864;29;20870;-65
2022/05/20 08:15:04;;;;;;;4.60;4.30;;;37.80;80.40;;;;;;4902082;29;20474;-65
2022/05/20 08:17:33;;;;;;;3.63;3.43;;;38.30;77.20;;;;;;4911156;29;20218;-66
2022/05/20 08:19:59;;;;;;;4.10;3.80;;;38.50;73.90;;;;;;4900112;29;20415;-65
2022/05/20 08:22:25;;;;;;;5.13;3.80;;;38.80;71.40;;;;;;4901464;29;20751;-64
2022/05/20 08:24:56;;;;;;;4.87;4.57;;;39.30;72.70;;;;;;4918650;29;20194;-67
2022/05/20 08:27:25;;;;;;;6.50;4.40;;;39.90;70.90;;;;;;4917032;29;20179;-67
2022/05/20 08:29:51;;;;;;;3.87;3.63;;;40.30;67.20;;;;;;4899734;29;20423;-67
2022/05/20 08:32:17;;;;;;;4.53;4.13;;;40.80;64.50;;;;;;4916229;29;20419;-68
2022/05/20 08:34:44;;;;;;;5.23;4.83;;;40.80;61.00;;;;;;4898360;29;20486;-67
2022/05/20 08:37:10;;;;;;;5.33;4.93;;;40.60;62.90;;;;;;4882985;29;20222;-66
2022/05/20 08:39:36;;;;;;;3.73;3.53;;;40.60;62.50;;;;;;4899818;29;20438;-68
2022/05/20 08:42:04;;;;;;;4.83;4.53;;;40.80;58.50;;;;;;4899437;29;20411;-73
2022/05/20 08:44:33;;;;;;;4.80;4.50;;;41.10;61.50;;;;;;4916497;29;20288;-68
2022/05/20 08:47:22;;;;;;;4.20;4.00;;;41.00;58.70;;;;;;4918537;29;20426;-66
2022/05/20 08:49:50;;;;;;;4.33;4.00;;;40.90;57.70;;;;;;4918591;29;20453;-68
2022/05/20 08:52:16;;;;;;;4.47;4.00;;;40.90;57.80;;;;;;4918144;29;20414;-71
2022/05/20 08:54:42;;;;;;;3.80;3.60;;;41.00;56.50;;;;;;4902136;29;20458;-69
2022/05/20 08:57:21;;;;;;;5.20;4.13;;;41.00;58.10;;;;;;4918427;29;20178;-66
2022/05/20 08:59:47;;;;;;;4.80;4.20;;;41.00;57.00;;;;;;4918613;29;20198;-70
2022/05/20 09:02:13;;;;;;;3.97;3.77;;;41.10;55.10;;;;;;4917993;29;20402;-69
2022/05/20 09:04:39;;;;;;;4.17;3.97;;;41.50;53.60;;;;;;4901535;29;20225;-66
2022/05/20 09:07:08;;;;;;;4.30;4.00;;;42.00;55.20;;;;;;4899387;29;20578;-69
2022/05/20 09:09:40;;;;;;;4.70;4.40;;;42.10;55.40;;;;;;4899096;29;20589;-67
2022/05/20 09:12:07;;;;;;;4.20;3.90;;;42.40;54.50;;;;;;4898734;29;20411;-68
2022/05/20 09:17:23;;;;;;;4.90;4.60;;;42.40;52.30;;;;;;4908754;29;20417;-68
2022/05/20 09:19:58;;;;;;;4.23;3.93;;;42.50;53.40;;;;;;4917812;29;20501;-68
2022/05/20 09:22:32;;;;;;;4.13;3.93;;;42.80;51.60;;;;;;4917599;29;20417;-68
2022/05/20 09:24:58;;;;;;;4.63;4.30;;;42.80;51.90;;;;;;4916635;29;20472;-66
2022/05/20 09:27:33;;;;;;;4.40;4.17;;;42.60;51.70;;;;;;4917485;29;20433;-67
2022/05/20 09:30:01;;;;;;;4.07;3.87;;;42.60;50.50;;;;;;4900913;29;20182;-70
2022/05/20 09:32:36;;;;;;;4.17;3.97;;;42.60;50.70;;;;;;4917349;29;20406;-66
2022/05/20 09:35:17;;;;;;;3.67;3.57;;;42.40;49.20;;;;;;4917265;29;20453;-64
2022/05/20 09:37:44;;;;;;;3.78;3.47;;;41.80;49.40;;;;;;4916490;29;20454;-67
2022/05/20 09:40:24;;;;;;;3.80;3.60;;;41.80;48.70;;;;;;4917660;29;20174;-66
2022/05/20 09:43:30;;;;;;;4.00;3.70;;;41.50;49.00;;;;;;4916532;29;20410;-65
2022/05/20 09:45:58;;;;;;;3.67;3.47;;;41.10;49.70;;;;;;4917184;29;20780;-66
2022/05/20 09:48:49;;;;;;;3.30;3.10;;;40.90;50.00;;;;;;4916649;29;20422;-67
2022/05/20 09:51:27;;;;;;;3.87;3.67;;;40.90;50.20;;;;;;4917531;29;20190;-65
2022/05/20 09:54:13;;;;;;;4.10;3.70;;;40.60;48.60;;;;;;4916576;29;20438;-65
2022/05/20 09:56:43;;;;;;;4.03;3.73;;;40.50;49.90;;;;;;4917512;29;20425;-68
2022/05/20 09:59:22;;;;;;;3.60;3.40;;;40.60;50.10;;;;;;4917112;29;20430;-68
2022/05/20 10:01:59;;;;;;;3.73;3.53;;;40.80;49.70;;;;;;4917252;29;20407;-68
2022/05/20 10:04:36;;;;;;;4.17;3.87;;;40.70;48.50;;;;;;4915467;29;20524;-67
2022/05/20 10:07:06;;;;;;;4.10;3.80;;;40.70;48.40;;;;;;4916548;29;20417;-68
2022/05/20 10:09:39;;;;;;;4.60;4.20;;;40.90;48.50;;;;;;4917075;29;20513;-68
2022/05/20 10:12:29;;;;;;;4.80;4.40;;;40.90;47.80;;;;;;4916192;29;20422;-68
2022/05/20 10:15:12;;;;;;;5.00;4.60;;;40.80;48.80;;;;;;4917186;29;20426;-68
2022/05/20 10:18:03;;;;;;;3.90;3.70;;;41.00;48.30;;;;;;4915688;29;20436;-68
2022/05/20 10:20:34;;;;;;;4.40;4.10;;;41.30;48.10;;;;;;4915070;29;20436;-70
2022/05/20 10:23:19;;;;;;;4.90;4.60;;;41.30;48.00;;;;;;4905057;29;20466;-67
2022/05/20 10:26:09;;;;;;;4.23;3.93;;;41.30;47.70;;;;;;4898248;29;20421;-68
2022/05/20 10:34:46;;;;;;;4.10;3.80;;;41.40;49.00;;;;;;4916982;29;20473;-66
2022/05/20 10:37:47;;;;;;;4.23;3.93;;;41.30;48.20;;;;;;4913820;29;20910;-64
2022/05/20 10:40:39;;;;;;;3.97;3.67;;;41.30;49.00;;;;;;4897934;29;20171;-66
2022/05/20 10:43:29;;;;;;;6.50;4.60;;;41.30;48.70;;;;;;4915466;29;20475;-65
2022/05/20 10:49:17;;;;;;;5.00;4.50;;;40.70;49.10;;;;;;4914116;29;20442;-65
2022/05/20 10:52:01;;;;;;;7.53;4.60;;;40.40;48.40;;;;;;4910249;29;20941;-65
2022/05/20 10:54:48;;;;;;;3.57;3.30;;;40.20;48.50;;;;;;4913623;29;20427;-65
2022/05/20 10:57:44;;;;;;;3.90;3.60;;;39.90;48.50;;;;;;4898188;29;20415;-65
2022/05/20 11:00:44;;;;;;;3.90;3.70;;;39.80;48.40;;;;;;4909330;29;21084;-65
2022/05/20 11:03:28;;;;;;;3.50;3.30;;;39.70;47.90;;;;;;4897300;29;20439;-66
2022/05/20 11:05:53;;;;;;;3.20;3.00;;;39.60;47.70;;;;;;4897117;29;20446;-66
2022/05/20 11:08:34;;;;;;;3.93;3.63;;;39.50;49.10;;;;;;4896950;29;21144;-65
2022/05/20 11:11:26;;;;;;;4.13;3.83;;;39.20;46.90;;;;;;4902383;29;20201;-65
2022/05/20 11:14:03;;;;;;;3.87;3.57;;;38.50;47.30;;;;;;4916011;29;20438;-65
2022/05/20 11:17:00;;;;;;;4.17;3.43;;;37.60;47.00;;;;;;4917553;29;20417;-65
2022/05/20 11:19:43;;;;;;;7.53;3.97;;;36.70;47.60;;;;;;4920220;29;20521;-65
2022/05/20 11:22:33;;;;;;;3.60;3.30;;;35.90;48.90;;;;;;4919721;29;20426;-65
2022/05/20 11:25:10;;;;;;;5.67;3.40;;;35.00;49.00;;;;;;4920042;29;20519;-65
2022/05/20 11:27:59;;;;;;;3.30;3.00;;;34.20;49.90;;;;;;4920131;29;20825;-65
2022/05/20 11:30:46;;;;;;;3.57;3.27;;;33.70;52.60;;;;;;4920194;29;20393;-64
2022/05/20 11:33:46;;;;;;;3.20;3.00;;;33.40;53.60;;;;;;4914209;29;20453;-64
2022/05/20 11:36:36;;;;;;;6.57;3.67;;;33.10;52.40;;;;;;4920067;29;20376;-64
2022/05/20 11:39:20;;;;;;;3.33;3.03;;;32.90;53.20;;;;;;4920242;29;20373;-64
2022/05/20 11:42:01;;;;;;;4.30;3.90;;;32.70;54.10;;;;;;4919726;29;20444;-64
2022/05/20 11:45:09;;;;;;;4.10;3.10;;;32.60;54.00;;;;;;4919756;29;20487;-65
2022/05/20 11:48:25;;;;;;;4.00;3.37;;;32.50;53.10;;;;;;4919498;29;20462;-65
2022/05/20 11:51:28;;;;;;;3.50;3.23;;;32.30;54.00;;;;;;4880086;29;20483;-65
2022/05/20 11:54:10;;;;;;;5.10;3.70;;;32.20;54.10;;;;;;4862457;29;20543;-66
2022/05/20 11:56:58;;;;;;;2.87;2.67;;;32.30;53.70;;;;;;4914485;29;20445;-64
2022/05/20 11:59:50;;;;;;;9.07;3.63;;;32.40;55.00;;;;;;4919323;29;20822;-65
2022/05/20 12:02:18;;;;;;;3.50;3.30;;;32.40;52.70;;;;;;4914734;29;20405;-65
2022/05/20 12:04:46;;;;;;;3.10;2.80;;;32.40;53.50;;;;;;4900032;29;20460;-65
2022/05/20 12:07:15;;;;;;;5.37;3.30;;;32.40;54.50;;;;;;4900628;29;20545;-64
2022/05/20 12:09:44;;;;;;;3.40;3.10;;;32.30;54.40;;;;;;4900299;29;20421;-69
2022/05/20 12:12:12;;;;;;;4.13;3.73;;;32.20;53.70;;;;;;4903063;29;20433;-68
2022/05/20 12:14:57;;;;;;;3.93;3.63;;;32.10;54.20;;;;;;4915903;29;20433;-68
2022/05/20 12:17:40;;;;;;;3.70;3.40;;;32.10;54.30;;;;;;4918626;29;20414;-64
2022/05/20 12:26:03;;;;;;;3.13;2.93;;;32.30;54.50;;;;;;4900298;29;20459;-66
2022/05/20 12:28:32;;;;;;;3.93;3.03;;;32.30;54.20;;;;;;4908154;29;20950;-65
2022/05/20 12:31:13;;;;;;;3.30;2.80;;;32.20;55.00;;;;;;4918679;29;20894;-67
2022/05/20 12:33:49;;;;;;;6.77;3.20;;;32.20;56.00;;;;;;4918287;29;20932;-66
2022/05/20 12:36:15;;;;;;;4.37;2.93;;;32.30;54.90;;;;;;4918656;29;20919;-65
2022/05/20 12:38:42;;;;;;;3.97;3.50;;;32.20;54.20;;;;;;4907160;29;20427;-65
2022/05/20 12:41:48;;;;;;;2.90;2.70;;;32.10;54.80;;;;;;4900010;29;20206;-65
2022/05/20 12:44:17;;;;;;;6.23;4.20;;;32.10;54.80;;;;;;4855361;29;20578;-65
2022/05/20 12:46:57;;;;;;;2.90;2.70;;;32.10;55.40;;;;;;4899315;29;20394;-66
2022/05/20 12:49:27;;;;;;;5.80;5.40;;;32.10;53.60;;;;;;4915938;29;20419;-66
2022/05/20 12:52:04;;;;;;;2.67;2.47;;;32.00;53.80;;;;;;4918530;29;20410;-66
2022/05/20 12:54:29;;;;;;;4.73;3.67;;;32.00;54.50;;;;;;4918600;29;20438;-66
2022/05/20 12:57:05;;;;;;;4.13;3.63;;;32.00;55.60;;;;;;4918341;29;20488;-67
2022/05/20 12:59:30;;;;;;;3.70;3.03;;;32.00;54.10;;;;;;4901625;29;20270;-66
2022/05/20 13:01:58;;;;;;;3.20;3.00;;;32.00;53.50;;;;;;4899739;29;20429;-66
2022/05/20 13:04:30;;;;;;;3.47;3.17;;;32.00;54.00;;;;;;4899223;29;20214;-65
2022/05/20 13:06:58;;;;;;;3.10;2.67;;;32.00;53.60;;;;;;4899363;29;20404;-66
2022/05/20 13:09:43;;;;;;;4.70;3.37;;;32.00;54.10;;;;;;4914883;29;20522;-65
2022/05/20 13:12:18;;;;;;;3.87;3.03;;;32.00;53.30;;;;;;4918033;29;20776;-65
2022/05/20 13:14:46;;;;;;;5.57;2.63;;;31.90;53.40;;;;;;4918204;29;20413;-65
2022/05/20 13:17:13;;;;;;;2.90;2.70;;;32.00;53.50;;;;;;4917890;29;20743;-65
2022/05/20 13:19:47;;;;;;;6.50;3.30;;;32.00;53.20;;;;;;4901197;29;20427;-67
2022/05/20 13:22:15;;;;;;;3.53;2.93;;;32.10;53.40;;;;;;4899085;29;20437;-66
2022/05/20 13:24:41;;;;;;;3.30;3.10;;;32.10;52.80;;;;;;4899106;29;20521;-64
2022/05/20 13:27:10;;;;;;;3.33;2.50;;;32.10;53.00;;;;;;4899438;29;20461;-66
2022/05/20 13:29:37;;;;;;;3.20;2.60;;;32.10;52.50;;;;;;4899217;29;20403;-65
2022/05/20 13:32:18;;;;;;;3.00;2.70;;;32.00;52.60;;;;;;4898842;29;20526;-66
2022/05/20 13:34:46;;;;;;;3.97;3.20;;;32.00;54.00;;;;;;4899136;29;20431;-65
2022/05/20 13:37:15;;;;;;;4.33;3.90;;;32.10;53.20;;;;;;4899303;29;20386;-68
2022/05/20 13:39:44;;;;;;;3.30;2.73;;;32.00;53.60;;;;;;4917892;29;20449;-66
2022/05/20 13:42:14;;;;;;;3.07;2.80;;;32.20;53.70;;;;;;4917329;29;20425;-64
2022/05/20 13:44:42;;;;;;;2.97;2.50;;;32.20;52.90;;;;;;4917500;29;20469;-66
2022/05/20 13:49:56;;;;;;;2.90;2.60;;;32.20;52.10;;;;;;4899055;29;20385;-65
2022/05/20 13:52:22;;;;;;;4.00;3.07;;;32.30;52.00;;;;;;4898572;29;20895;-66
2022/05/20 13:54:56;;;;;;;3.10;2.83;;;32.30;52.30;;;;;;4898623;29;20423;-65
2022/05/20 13:57:35;;;;;;;3.00;2.50;;;32.40;53.10;;;;;;4911522;29;20393;-66
2022/05/20 14:00:08;;;;;;;6.50;2.50;;;32.30;54.10;;;;;;4917621;29;20480;-66
2022/05/20 14:02:40;;;;;;;3.00;2.30;;;32.40;53.60;;;;;;4915794;29;20405;-65
2022/05/20 14:05:30;;;;;;;3.13;2.37;;;32.40;52.10;;;;;;4916645;29;20444;-66
2022/05/20 14:08:01;;;;;;;8.43;2.93;;;32.40;52.30;;;;;;4916229;29;20400;-65
2022/05/20 14:10:34;;;;;;;3.20;2.57;;;32.40;52.10;;;;;;4916753;29;20373;-65
2022/05/20 14:13:07;;;;;;;2.60;2.40;;;32.20;52.40;;;;;;4916088;29;20503;-65
2022/05/20 14:15:50;;;;;;;4.20;3.00;;;32.30;53.40;;;;;;4916625;29;20929;-65
2022/05/20 14:18:35;;;;;;;3.23;2.90;;;32.40;54.40;;;;;;4911723;29;20428;-65
2022/05/20 14:21:16;;;;;;;2.80;2.60;;;32.50;53.00;;;;;;4899543;29;20915;-65
2022/05/20 14:23:47;;;;;;;5.20;3.37;;;32.60;53.40;;;;;;4915948;29;20458;-65
2022/05/20 14:26:26;;;;;;;4.87;3.40;;;32.70;53.20;;;;;;4916103;29;20385;-65
2022/05/20 14:28:57;;;;;;;4.00;3.50;;;32.80;53.40;;;;;;4897916;29;20398;-65
2022/05/20 14:31:47;;;;;;;4.17;3.17;;;32.80;54.30;;;;;;4897639;29;20382;-65
2022/05/20 14:34:26;;;;;;;2.80;2.60;;;32.80;54.00;;;;;;4896991;29;20431;-65
2022/05/20 14:36:54;;;;;;;3.33;2.90;;;32.70;53.10;;;;;;4899770;29;20430;-64
2022/05/20 14:39:23;;;;;;;5.40;3.80;;;32.60;52.30;;;;;;4916103;29;20898;-66
2022/05/20 14:42:22;;;;;;;4.60;3.50;;;32.60;52.90;;;;;;4916222;29;20413;-66
2022/05/20 14:44:49;;;;;;;4.00;3.70;;;32.50;53.70;;;;;;4915963;29;20517;-65
2022/05/20 14:47:23;;;;;;;4.13;3.73;;;32.40;53.60;;;;;;4910554;29;20398;-65
2022/05/20 14:49:57;;;;;;;3.93;3.63;;;32.30;53.60;;;;;;4897147;29;20411;-65
2022/05/20 14:52:43;;;;;;;4.73;4.27;;;32.20;55.50;;;;;;4899387;29;20411;-65
2022/05/20 14:55:20;;;;;;;6.93;4.57;;;31.80;59.50;;;;;;4900683;29;20974;-66
2022/05/20 14:58:14;;;;;;;8.93;3.90;;;31.30;62.10;;;;;;4909715;29;20513;-65
2022/05/20 15:01:07;;;;;;;3.93;3.63;;;30.90;65.70;;;;;;4919209;29;20389;-65
2022/05/20 15:06:28;;;;;;;4.00;3.70;;;30.40;65.90;;;;;;5070656;28;21104;-66
2022/05/20 15:08:55;;;;;;;5.10;3.90;;;29.90;66.90;;;;;;5069125;28;20415;-67
2022/05/20 15:11:29;;;;;;;4.07;3.70;;;29.80;67.60;;;;;;5070913;28;20403;-67
2022/05/20 15:13:55;;;;;;;5.40;3.60;;;29.80;68.30;;;;;;5060870;28;20948;-67
2022/05/20 15:16:22;;;;;;;4.67;4.27;;;30.00;68.50;;;;;;5050317;28;20384;-67
2022/05/20 15:18:48;;;;;;;4.27;3.53;;;30.20;66.50;;;;;;5050096;28;20473;-67
2022/05/20 15:21:22;;;;;;;3.97;3.27;;;30.30;65.90;;;;;;5050427;28;20534;-67
2022/05/20 15:24:06;;;;;;;4.13;3.30;;;30.40;66.50;;;;;;5049818;28;20402;-67
2022/05/20 15:26:35;;;;;;;4.97;3.40;;;30.50;64.30;;;;;;5050015;28;20375;-67
2022/05/20 15:29:01;;;;;;;3.30;3.00;;;30.50;64.50;;;;;;5049149;28;20425;-66
2022/05/20 15:37:12;;;;;;;3.80;3.27;;;30.10;66.60;;;;;;5049456;28;20462;-65
2022/05/20 15:39:41;;;;;;;4.30;3.90;;;29.90;67.50;;;;;;5050363;28;20503;-66
2022/05/20 15:42:08;;;;;;;3.53;3.30;;;29.90;68.20;;;;;;5049817;28;20675;-66
2022/05/20 15:44:34;;;;;;;4.10;3.60;;;29.70;67.90;;;;;;5049745;28;20458;-65
2022/05/20 15:47:00;;;;;;;3.80;3.27;;;29.50;67.60;;;;;;5048263;28;20901;-65
2022/05/20 15:49:26;;;;;;;3.87;3.57;;;29.30;69.00;;;;;;5048349;28;20406;-66
2022/05/20 15:51:53;;;;;;;5.10;3.13;;;29.00;70.00;;;;;;5049837;28;20413;-65
2022/05/20 15:54:18;;;;;;;4.80;3.17;;;28.80;69.50;;;;;;5049411;28;20192;-65
2022/05/20 15:56:44;;;;;;;4.30;3.90;;;28.60;70.00;;;;;;5049122;28;20403;-66
2022/05/20 15:59:11;;;;;;;3.63;3.33;;;28.50;70.40;;;;;;5049390;28;20588;-66
2022/05/20 16:01:37;;;;;;;4.00;3.27;;;28.40;72.00;;;;;;5049781;28;20409;-66
2022/05/20 16:04:04;;;;;;;8.73;3.50;;;28.20;73.00;;;;;;5048835;28;20414;-73
2022/05/20 16:06:35;;;;;;;3.97;3.67;;;28.00;74.00;;;;;;5049294;28;20477;-65
2022/05/20 16:09:03;;;;;;;4.97;3.50;;;28.00;75.10;;;;;;5049161;28;20394;-64
2022/05/20 16:11:32;;;;;;;8.67;3.03;;;28.00;74.60;;;;;;5043314;28;20443;-64
2022/05/20 16:13:58;;;;;;;3.07;2.87;;;27.90;75.90;;;;;;5037345;28;20530;-65
2022/05/20 16:16:24;;;;;;;3.40;3.10;;;27.70;74.30;;;;;;5039360;28;20393;-65
2022/05/20 16:18:50;;;;;;;4.75;3.40;;;27.60;75.70;;;;;;5034769;28;20453;-72
2022/05/20 16:21:16;;;;;;;4.47;3.50;;;27.50;75.80;;;;;;5034615;28;20263;-71
2022/05/20 16:23:48;;;;;;;4.20;3.03;;;27.40;76.70;;;;;;5035569;28;20194;-67
2022/05/20 16:26:20;;;;;;;3.83;3.13;;;27.20;77.50;;;;;;5035958;28;20381;-73
2022/05/20 16:28:49;;;;;;;3.07;2.83;;;27.00;78.30;;;;;;5035421;28;20786;-67
2022/05/20 16:31:15;;;;;;;3.67;2.73;;;26.90;78.60;;;;;;5035685;28;20409;-66
2022/05/20 16:33:41;;;;;;;4.93;4.13;;;26.80;78.70;;;;;;5035274;28;20413;-67
2022/05/20 16:36:07;;;;;;;2.97;2.77;;;26.70;80.00;;;;;;5035540;28;20433;-68
2022/05/20 16:38:33;;;;;;;3.70;3.50;;;26.60;79.80;;;;;;5035412;28;20403;-68
2022/05/20 16:40:59;;;;;;;5.33;3.90;;;26.60;80.50;;;;;;5035580;28;20401;-72
2022/05/20 16:43:25;;;;;;;6.20;4.90;;;26.40;81.20;;;;;;5035093;28;20190;-73
2022/05/20 16:45:51;;;;;;;3.27;2.97;;;26.40;80.80;;;;;;5034209;28;20840;-69
2022/05/20 16:48:22;;;;;;;3.53;3.20;;;26.30;81.10;;;;;;5035191;28;20483;-67
2022/05/20 16:50:49;;;;;;;9.77;3.53;;;26.30;80.70;;;;;;5034113;28;20391;-72
2022/05/20 16:53:18;;;;;;;4.03;3.07;;;26.30;80.70;;;;;;5034888;28;20398;-68
2022/05/20 16:55:43;;;;;;;4.50;3.50;;;26.30;80.70;;;;;;5034648;28;20801;-71
2022/05/20 17:03:39;;;;;;;3.67;3.37;;;26.60;80.10;;;;;;5033830;28;20402;-68
2022/05/20 17:06:09;;;;;;;3.73;2.97;;;26.80;80.10;;;;;;5024716;28;20514;-66
2022/05/20 17:08:36;;;;;;;2.97;2.77;;;26.80;79.60;;;;;;5027953;28;20414;-71
2022/05/20 17:11:01;;;;;;;3.63;3.33;;;26.80;79.70;;;;;;5034197;28;20402;-71
2022/05/20 17:13:27;;;;;;;2.87;2.67;;;26.80;79.60;;;;;;5034225;28;20417;-71
2022/05/20 17:15:53;;;;;;;5.13;3.70;;;26.80;80.20;;;;;;5034892;28;20166;-70
2022/05/20 17:18:20;;;;;;;3.43;2.83;;;26.80;80.20;;;;;;5066547;28;20174;-70
2022/05/20 17:20:46;;;;;;;4.03;3.63;;;26.80;80.00;;;;;;5034697;28;20178;-70
2022/05/20 17:25:59;;;;;;;5.23;3.17;;;26.80;80.40;;;;;;5034743;28;20259;-71
2022/05/20 17:28:26;;;;;;;4.33;3.00;;;26.80;80.60;;;;;;5032404;28;20885;-70
2022/05/20 17:30:51;;;;;;;5.80;3.23;;;26.80;81.00;;;;;;5034739;28;20416;-71
2022/05/20 17:33:17;;;;;;;3.10;2.90;;;26.80;81.10;;;;;;5032979;28;20776;-70
2022/05/20 17:35:43;;;;;;;7.97;3.27;;;26.80;81.40;;;;;;5034391;28;20189;-70
2022/05/20 17:38:09;;;;;;;4.80;4.00;;;26.70;81.80;;;;;;5034180;28;20181;-71
2022/05/20 17:40:35;;;;;;;10.53;6.40;;;26.60;82.30;;;;;;5034350;28;20170;-70
2022/05/20 17:43:00;;;;;;;8.27;5.47;;;26.50;82.80;;;;;;5033911;28;20169;-70
2022/05/20 17:45:26;;;;;;;3.73;3.27;;;26.50;83.00;;;;;;5034435;28;20201;-70
2022/05/20 17:47:52;;;;;;;3.07;2.80;;;26.50;83.10;;;;;;5034216;28;20163;-70
2022/05/20 17:50:17;;;;;;;4.10;3.70;;;26.50;82.60;;;;;;5034166;28;20873;-70
2022/05/20 17:52:43;;;;;;;4.20;3.80;;;26.50;82.50;;;;;;5033287;28;20173;-71
2022/05/20 17:55:09;;;;;;;5.13;4.70;;;26.40;82.70;;;;;;5032123;28;20198;-72
2022/05/20 17:57:37;;;;;;;8.67;3.43;;;26.40;83.50;;;;;;5032129;28;20170;-71
2022/05/20 18:00:07;;;;;;;3.83;3.50;;;26.30;83.50;;;;;;5032074;28;20182;-70
2022/05/20 18:02:33;;;;;;;3.10;2.80;;;26.30;83.60;;;;;;5033274;28;20409;-71
2022/05/20 18:04:58;;;;;;;3.77;3.47;;;26.20;84.40;;;;;;5033687;28;20844;-69